createdAt,value
2017-10-11T00:00:06.187Z,10.60
2017-10-11T00:02:34.272Z,11.80
2017-10-11T00:05:02.344Z,11.80
2017-10-11T00:07:30.447Z,14.07
2017-10-11T00:09:58.528Z,15.60
2017-10-11T00:12:26.606Z,10.37
2017-10-11T00:14:56.234Z,14.90
2017-10-11T00:17:25.140Z,11.87
2017-10-11T00:19:53.258Z,14.17
2017-10-11T00:22:22.121Z,11.43
2017-10-11T00:24:50.980Z,13.50
2017-10-11T00:27:19.744Z,18.73
2017-10-11T00:29:47.873Z,15.70
2017-10-11T00:32:15.977Z,16.77
2017-10-11T00:34:44.066Z,14.07
2017-10-11T00:37:12.153Z,13.90
2017-10-11T00:39:41.009Z,13.43
2017-10-11T00:42:09.157Z,17.13
2017-10-11T00:44:38.011Z,13.03
2017-10-11T00:47:06.897Z,17.57
2017-10-11T00:49:34.999Z,15.20
2017-10-11T00:52:03.070Z,14.07
2017-10-11T00:54:31.961Z,14.27
2017-10-11T00:57:00.134Z,15.03
2017-10-11T00:59:28.242Z,17.37
2017-10-11T01:01:56.321Z,15.13
2017-10-11T01:04:24.423Z,19.60
2017-10-11T01:06:52.523Z,16.10
2017-10-11T01:09:20.641Z,16.90
2017-10-11T01:11:48.727Z,19.27
2017-10-11T01:14:16.812Z,15.70
2017-10-11T01:16:44.915Z,15.33
2017-10-11T01:19:13.030Z,22.77
2017-10-11T01:21:41.195Z,17.07
2017-10-11T01:24:09.284Z,17.83
2017-10-11T01:26:37.370Z,18.67
2017-10-11T01:29:05.472Z,19.47
2017-10-11T01:31:33.574Z,21.67
2017-10-11T01:34:01.672Z,19.47
2017-10-11T01:36:30.563Z,23.90
2017-10-11T01:38:58.666Z,24.53
2017-10-11T01:41:26.744Z,26.27
2017-10-11T01:43:54.833Z,21.50
2017-10-11T01:46:22.922Z,24.30
2017-10-11T01:48:51.041Z,21.43
2017-10-11T01:51:19.102Z,20.40
2017-10-11T01:53:47.214Z,18.83
2017-10-11T01:56:15.291Z,20.13
2017-10-11T01:58:43.395Z,18.40
2017-10-11T02:01:11.594Z,17.50
2017-10-11T02:03:39.673Z,16.57
2017-10-11T02:06:07.764Z,14.53
2017-10-11T02:08:35.850Z,15.33
2017-10-11T02:11:04.705Z,13.87
2017-10-11T02:13:33.583Z,15.10
2017-10-11T02:16:02.450Z,13.67
2017-10-11T02:18:30.536Z,13.10
2017-10-11T02:20:58.599Z,8.60
2017-10-11T02:23:26.848Z,8.13
2017-10-11T02:25:55.669Z,7.60
2017-10-11T02:28:23.763Z,7.20
2017-10-11T02:30:52.665Z,8.40
2017-10-11T02:33:20.787Z,7.57
2017-10-11T02:35:48.836Z,8.57
2017-10-11T02:38:16.915Z,9.93
2017-10-11T02:40:45.772Z,12.50
2017-10-11T02:43:14.674Z,15.07
2017-10-11T02:45:42.779Z,18.37
2017-10-11T02:48:10.876Z,17.50
2017-10-11T02:50:38.962Z,17.73
2017-10-11T02:53:07.053Z,17.33
2017-10-11T02:55:35.170Z,21.37
2017-10-11T02:58:03.257Z,20.17
2017-10-11T03:00:31.497Z,22.40
2017-10-11T03:02:59.580Z,22.53
2017-10-11T03:05:27.783Z,23.03
2017-10-11T03:07:55.867Z,23.50
2017-10-11T03:10:23.961Z,25.73
2017-10-11T03:12:52.064Z,25.73
2017-10-11T03:15:20.148Z,23.80
2017-10-11T03:17:48.257Z,24.80
2017-10-11T03:20:17.121Z,25.70
2017-10-11T03:22:45.291Z,25.77
2017-10-11T03:25:13.379Z,25.40
2017-10-11T03:27:41.499Z,24.67
2017-10-11T03:30:09.602Z,25.40
2017-10-11T03:32:37.695Z,23.30
2017-10-11T03:35:05.767Z,24.13
2017-10-11T03:37:34.642Z,29.17
2017-10-11T03:40:03.522Z,23.37
2017-10-11T03:42:31.630Z,25.53
2017-10-11T03:44:59.741Z,23.33
2017-10-11T03:47:27.828Z,24.13
2017-10-11T03:49:55.936Z,27.63
2017-10-11T03:52:24.023Z,23.73
2017-10-11T03:54:52.149Z,20.83
2017-10-11T03:57:20.936Z,20.30
2017-10-11T03:59:49.062Z,21.77
2017-10-11T04:02:17.150Z,23.60
2017-10-11T04:04:45.276Z,22.30
2017-10-11T04:07:13.528Z,21.37
2017-10-11T04:09:41.633Z,20.73
2017-10-11T04:12:09.726Z,22.63
2017-10-11T04:14:37.830Z,23.63
2017-10-11T04:17:05.951Z,21.80
2017-10-11T04:19:34.093Z,21.13
2017-10-11T04:22:02.170Z,21.83
2017-10-11T04:24:30.269Z,20.90
2017-10-11T04:26:58.376Z,20.93
2017-10-11T04:29:36.381Z,22.10
2017-10-11T04:32:04.501Z,20.33
2017-10-11T04:34:33.389Z,21.57
2017-10-11T04:37:01.486Z,22.20
2017-10-11T04:39:29.593Z,23.20
2017-10-11T04:41:57.682Z,27.83
2017-10-11T04:44:25.799Z,23.93
2017-10-11T04:46:55.304Z,24.83
2017-10-11T04:49:24.297Z,24.93
2017-10-11T04:51:52.906Z,24.10
2017-10-11T04:54:21.010Z,24.37
2017-10-11T04:56:49.126Z,26.80
2017-10-11T04:59:18.045Z,26.13
2017-10-11T05:01:47.881Z,23.20
2017-10-11T05:04:15.970Z,23.87
2017-10-11T05:06:44.833Z,22.93
2017-10-11T05:09:12.914Z,23.77
2017-10-11T05:11:41.021Z,30.33
2017-10-11T05:14:09.152Z,25.03
2017-10-11T05:16:38.460Z,28.60
2017-10-11T05:19:06.568Z,25.97
2017-10-11T05:21:35.450Z,27.03
2017-10-11T05:24:03.562Z,26.07
2017-10-11T05:26:31.737Z,25.73
2017-10-11T05:28:59.849Z,28.50
2017-10-11T05:31:27.967Z,29.33
2017-10-11T05:33:56.108Z,31.70
2017-10-11T05:36:24.544Z,26.50
2017-10-11T05:38:52.903Z,28.50
2017-10-11T05:41:21.031Z,29.67
2017-10-11T05:43:50.276Z,30.40
2017-10-11T05:46:18.371Z,28.90
2017-10-11T05:48:47.699Z,31.07
2017-10-11T05:51:16.716Z,34.60
2017-10-11T05:53:45.064Z,30.07
2017-10-11T05:56:13.146Z,27.63
2017-10-11T05:58:41.998Z,30.10
2017-10-11T06:01:10.102Z,28.30
2017-10-11T06:03:38.207Z,26.43
2017-10-11T06:06:07.810Z,29.07
2017-10-11T06:08:35.915Z,28.93
2017-10-11T06:11:04.027Z,26.10
2017-10-11T06:13:32.121Z,30.00
2017-10-11T06:16:02.653Z,28.30
2017-10-11T06:18:30.768Z,28.63
2017-10-11T06:20:59.046Z,28.93
2017-10-11T06:23:27.147Z,30.43
2017-10-11T06:25:55.273Z,30.10
2017-10-11T06:28:23.359Z,30.97
2017-10-11T06:30:51.446Z,29.87
2017-10-11T06:33:19.540Z,30.17
2017-10-11T06:35:47.645Z,28.93
2017-10-11T06:38:15.732Z,28.10
2017-10-11T06:40:43.796Z,30.07
2017-10-11T06:43:11.912Z,32.17
2017-10-11T06:45:40.006Z,29.03
2017-10-11T06:48:08.120Z,28.43
2017-10-11T06:50:36.211Z,30.10
2017-10-11T06:53:04.795Z,27.43
2017-10-11T06:55:32.919Z,26.20
2017-10-11T06:58:01.046Z,26.40
2017-10-11T07:00:29.256Z,26.03
2017-10-11T07:02:57.364Z,23.30
2017-10-11T07:05:25.515Z,22.70
2017-10-11T07:07:54.061Z,21.07
2017-10-11T07:10:22.295Z,21.80
2017-10-11T07:12:50.376Z,20.93
2017-10-11T07:15:18.492Z,19.57
2017-10-11T07:17:46.675Z,17.93
2017-10-11T07:20:14.867Z,16.20
2017-10-11T07:22:42.975Z,16.70
2017-10-11T07:25:11.114Z,18.40
2017-10-11T07:27:40.008Z,18.47
2017-10-11T07:30:08.113Z,18.00
2017-10-11T07:32:36.262Z,18.43
2017-10-11T07:35:05.132Z,19.90
2017-10-11T07:37:33.223Z,18.40
2017-10-11T07:40:02.099Z,23.03
2017-10-11T07:42:30.230Z,24.40
2017-10-11T07:44:58.311Z,22.57
2017-10-11T07:47:27.181Z,22.73
2017-10-11T07:49:55.288Z,24.00
2017-10-11T07:52:24.909Z,21.70
2017-10-11T07:54:53.749Z,20.93
2017-10-11T07:57:21.857Z,27.20
2017-10-11T07:59:49.955Z,22.47
2017-10-11T08:02:19.579Z,22.03
2017-10-11T08:04:48.457Z,23.93
2017-10-11T08:07:16.573Z,22.80
2017-10-11T08:09:45.438Z,22.70
2017-10-11T08:12:13.568Z,26.60
2017-10-11T08:14:41.672Z,24.50
2017-10-11T08:17:10.537Z,25.07
2017-10-11T08:19:38.643Z,23.03
2017-10-11T08:22:06.734Z,23.43
2017-10-11T08:24:35.582Z,25.10
2017-10-11T08:27:03.668Z,24.53
2017-10-11T08:29:31.785Z,25.80
2017-10-11T08:31:59.876Z,27.77
2017-10-11T08:34:28.011Z,24.97
2017-10-11T08:36:56.125Z,24.60
2017-10-11T08:39:24.212Z,30.83
2017-10-11T08:41:53.085Z,26.77
2017-10-11T08:44:21.313Z,25.63
2017-10-11T08:46:49.443Z,23.03
2017-10-11T08:49:17.602Z,25.33
2017-10-11T08:51:45.745Z,26.37
2017-10-11T08:54:15.091Z,27.60
2017-10-11T08:56:44.762Z,23.97
2017-10-11T08:59:12.875Z,23.93
2017-10-11T09:01:41.006Z,26.73
2017-10-11T09:04:09.128Z,24.73
2017-10-11T09:06:37.257Z,24.10
2017-10-11T09:09:05.376Z,24.60
2017-10-11T09:11:34.248Z,23.60
2017-10-11T09:14:02.351Z,25.30
2017-10-11T09:16:30.438Z,25.60
2017-10-11T09:18:58.535Z,24.17
2017-10-11T09:21:26.649Z,23.17
2017-10-11T09:23:54.767Z,21.57
2017-10-11T09:26:22.858Z,20.67
2017-10-11T09:28:51.730Z,17.67
2017-10-11T09:31:19.859Z,15.80
2017-10-11T09:33:47.983Z,14.90
2017-10-11T09:36:16.123Z,15.60
2017-10-11T09:38:44.231Z,14.13
2017-10-11T09:41:12.333Z,13.60
2017-10-11T09:43:40.453Z,13.10
2017-10-11T09:46:08.573Z,12.50
2017-10-11T09:48:36.666Z,11.90
2017-10-11T09:51:05.654Z,10.27
2017-10-11T09:53:33.760Z,14.33
2017-10-11T09:56:01.832Z,9.00
2017-10-11T09:58:29.935Z,10.43
2017-10-11T10:00:58.184Z,8.63
2017-10-11T10:03:26.258Z,8.07
2017-10-11T10:05:54.363Z,12.90
2017-10-11T10:08:22.467Z,14.53
2017-10-11T10:10:50.596Z,9.03
2017-10-11T10:13:18.704Z,13.30
2017-10-11T10:15:46.832Z,14.20
2017-10-11T10:18:15.742Z,11.10
2017-10-11T10:20:43.835Z,6.23
2017-10-11T10:23:11.957Z,10.40
2017-10-11T10:25:40.054Z,7.10
2017-10-11T10:28:08.175Z,23.80
2017-10-11T10:30:36.260Z,23.53
2017-10-11T10:33:04.382Z,17.77
2017-10-11T10:35:33.234Z,16.40
2017-10-11T10:38:01.363Z,9.20
2017-10-11T10:40:29.538Z,8.97
2017-10-11T10:42:58.436Z,9.00
2017-10-11T10:45:26.592Z,9.80
2017-10-11T10:47:54.686Z,8.23
2017-10-11T10:50:22.805Z,11.60
2017-10-11T10:52:50.915Z,6.23
2017-10-11T10:55:19.004Z,5.90
2017-10-11T10:57:47.109Z,6.60
2017-10-11T11:00:15.266Z,10.37
2017-10-11T11:02:43.354Z,8.00
2017-10-11T11:05:11.549Z,7.07
2017-10-11T11:07:40.428Z,7.70
2017-10-11T11:10:09.296Z,7.90
2017-10-11T11:12:37.385Z,7.53
2017-10-11T11:15:06.228Z,8.53
2017-10-11T11:17:34.343Z,8.67
2017-10-11T11:20:02.492Z,9.33
2017-10-11T11:22:30.584Z,8.73
2017-10-11T11:24:58.716Z,10.50
2017-10-11T11:27:26.945Z,9.47
2017-10-11T11:29:55.122Z,10.33
2017-10-11T11:32:23.221Z,15.07
2017-10-11T11:34:52.096Z,10.10
2017-10-11T11:37:20.211Z,9.37
2017-10-11T11:39:48.319Z,9.63
2017-10-11T11:42:16.406Z,10.07
2017-10-11T11:44:45.278Z,10.50
2017-10-11T11:49:47.820Z,9.50
2017-10-11T11:52:15.997Z,10.40
2017-10-11T11:54:44.075Z,10.00
2017-10-11T11:57:12.321Z,11.47
2017-10-11T11:59:40.381Z,13.07
2017-10-11T12:02:09.086Z,13.43
2017-10-11T12:04:37.189Z,15.20
2017-10-11T12:07:05.349Z,19.47
2017-10-11T12:09:34.258Z,16.73
2017-10-11T12:12:03.154Z,13.70
2017-10-11T12:14:31.251Z,10.80
2017-10-11T12:16:59.326Z,10.27
2017-10-11T12:19:27.457Z,9.80
2017-10-11T12:21:55.583Z,9.80
2017-10-11T12:24:23.728Z,9.27
2017-10-11T12:26:51.866Z,7.37
2017-10-11T12:29:19.957Z,8.30
2017-10-11T12:31:48.133Z,8.63
2017-10-11T12:34:16.231Z,6.80
2017-10-11T12:36:44.362Z,6.77
2017-10-11T12:39:12.449Z,6.47
2017-10-11T12:41:40.614Z,6.07
2017-10-11T12:44:09.419Z,6.57
2017-10-11T12:46:37.541Z,6.43
2017-10-11T12:49:05.728Z,5.70
2017-10-11T12:51:35.335Z,5.57
2017-10-11T12:54:04.199Z,4.97
2017-10-11T12:56:32.356Z,5.60
2017-10-11T12:59:00.529Z,5.40
2017-10-11T13:01:28.663Z,4.40
2017-10-11T13:03:57.576Z,3.70
2017-10-11T13:06:25.683Z,4.07
2017-10-11T13:08:53.776Z,3.97
2017-10-11T13:11:22.672Z,3.20
2017-10-11T13:13:51.536Z,3.67
2017-10-11T13:16:20.441Z,3.00
2017-10-11T13:18:49.183Z,3.67
2017-10-11T13:21:18.196Z,3.80
2017-10-11T13:23:46.331Z,5.10
2017-10-11T13:26:14.426Z,4.37
2017-10-11T13:28:43.278Z,5.47
2017-10-11T13:31:11.393Z,8.00
2017-10-11T13:33:39.496Z,6.50
2017-10-11T13:36:07.576Z,14.87
2017-10-11T13:38:35.748Z,7.87
2017-10-11T13:41:03.849Z,8.83
2017-10-11T13:43:32.739Z,9.07
2017-10-11T13:46:00.950Z,10.20
2017-10-11T13:48:29.835Z,11.07
2017-10-11T13:50:57.931Z,12.20
2017-10-11T13:53:26.067Z,12.00
2017-10-11T13:55:54.185Z,11.63
2017-10-11T13:58:22.326Z,11.03
2017-10-11T14:00:50.468Z,14.10
2017-10-11T14:03:19.344Z,12.60
2017-10-11T14:05:48.212Z,13.37
2017-10-11T14:08:16.320Z,13.87
2017-10-11T14:10:44.496Z,14.50
2017-10-11T14:13:12.610Z,14.77
2017-10-11T14:15:40.761Z,15.10
2017-10-11T14:18:08.881Z,15.57
2017-10-11T14:20:37.771Z,16.60
2017-10-11T14:23:05.891Z,18.90
2017-10-11T14:25:34.009Z,17.90
2017-10-11T14:28:02.172Z,17.83
2017-10-11T14:30:30.301Z,23.73
2017-10-11T14:32:58.404Z,18.57
2017-10-11T14:35:27.312Z,17.40
2017-10-11T14:37:55.446Z,18.53
2017-10-11T14:40:23.549Z,21.63
2017-10-11T14:42:51.713Z,20.27
2017-10-11T14:45:19.837Z,19.70
2017-10-11T14:47:47.940Z,18.60
2017-10-11T14:50:16.790Z,19.00
2017-10-11T14:52:44.918Z,18.83
2017-10-11T14:55:13.062Z,18.33
2017-10-11T14:57:41.219Z,19.40
2017-10-11T15:00:09.350Z,18.57
2017-10-11T15:02:37.478Z,21.10
2017-10-11T15:05:06.590Z,18.40
2017-10-11T15:07:34.697Z,18.70
2017-10-11T15:10:02.803Z,18.33
2017-10-11T15:12:31.665Z,17.67
2017-10-11T15:15:00.298Z,19.97
2017-10-11T15:17:28.437Z,19.20
2017-10-11T15:19:58.103Z,20.53
2017-10-11T15:22:26.414Z,19.87
2017-10-11T15:24:54.526Z,20.00
2017-10-11T16:43:23.358Z,13.80
2017-10-11T16:45:51.528Z,13.87
2017-10-11T16:48:19.628Z,13.40
2017-10-11T16:50:47.853Z,16.40
2017-10-11T16:53:16.455Z,14.87
2017-10-11T16:55:44.549Z,14.83
2017-10-11T16:58:12.648Z,15.10
2017-10-11T17:00:41.531Z,14.70
2017-10-11T17:03:09.750Z,15.63
2017-10-11T17:05:38.533Z,15.03
2017-10-11T17:08:07.494Z,13.13
2017-10-11T17:10:37.098Z,13.60
2017-10-11T17:13:05.226Z,13.37
2017-10-11T17:15:33.321Z,14.17
2017-10-11T17:18:01.405Z,13.57
2017-10-11T17:20:29.552Z,20.43
2017-10-11T17:22:57.674Z,11.73
2017-10-11T17:25:25.750Z,11.33
2017-10-11T17:27:54.721Z,11.53
2017-10-11T17:30:22.842Z,11.33
2017-10-11T17:32:51.032Z,13.13
2017-10-11T17:35:19.226Z,10.60
2017-10-11T17:37:47.314Z,10.80
2017-10-11T17:40:16.201Z,10.67
2017-10-11T17:42:44.295Z,10.30
2017-10-11T17:45:12.464Z,10.40
2017-10-11T17:47:40.643Z,12.53
2017-10-11T17:50:08.781Z,10.40
2017-10-11T17:52:36.919Z,11.33
2017-10-11T17:55:05.798Z,10.00
2017-10-11T17:57:33.935Z,11.13
2017-10-11T18:00:02.014Z,11.90
2017-10-11T18:02:30.148Z,10.97
2017-10-11T18:05:00.010Z,22.70
2017-10-11T18:07:28.160Z,15.83
2017-10-11T18:09:57.151Z,14.43
2017-10-11T18:12:25.330Z,13.10
2017-10-11T18:14:53.799Z,13.17
2017-10-11T18:17:22.659Z,12.90
2017-10-11T18:19:50.783Z,14.23
2017-10-11T18:22:18.938Z,15.50
2017-10-11T18:24:47.071Z,13.13
2017-10-11T18:27:15.185Z,14.87
2017-10-11T18:29:43.278Z,14.70
2017-10-11T18:32:11.463Z,13.90
2017-10-11T18:34:39.673Z,15.07
2017-10-11T18:37:07.811Z,15.00
2017-10-11T18:39:36.651Z,14.97
2017-10-11T18:42:04.773Z,14.80
2017-10-11T18:44:32.862Z,14.57
2017-10-11T18:47:01.020Z,12.37
2017-10-11T18:49:29.133Z,13.20
2017-10-11T18:51:58.575Z,12.73
2017-10-11T18:54:26.699Z,13.53
2017-10-11T18:56:54.843Z,11.90
2017-10-11T18:59:22.932Z,12.10
2017-10-11T19:01:51.841Z,13.43
2017-10-11T19:04:20.718Z,12.20
2017-10-11T19:06:48.855Z,12.80
2017-10-11T19:09:17.070Z,11.73
2017-10-11T19:11:45.956Z,13.53
2017-10-11T19:14:14.085Z,12.20
2017-10-11T19:16:42.204Z,12.60
2017-10-11T19:19:10.635Z,12.60
2017-10-11T19:21:38.749Z,11.30
2017-10-11T19:24:06.845Z,11.83
2017-10-11T19:26:37.989Z,13.57
2017-10-11T19:29:06.201Z,11.30
2017-10-11T19:31:34.316Z,10.67
2017-10-11T19:34:03.208Z,10.37
2017-10-11T19:36:31.372Z,11.40
2017-10-11T19:38:59.463Z,12.00
2017-10-11T19:41:27.568Z,11.53
2017-10-11T19:43:55.718Z,12.07
2017-10-11T19:46:23.820Z,12.03
2017-10-11T19:48:51.914Z,11.80
2017-10-11T19:51:20.011Z,11.80
2017-10-11T19:53:48.203Z,11.10
2017-10-11T19:56:17.179Z,11.47
2017-10-11T19:58:45.286Z,16.40
2017-10-11T20:01:13.404Z,11.13
2017-10-11T20:03:41.515Z,13.20
2017-10-11T20:06:09.621Z,13.37
2017-10-11T20:08:38.220Z,13.50
2017-10-11T20:11:07.093Z,13.90
2017-10-11T20:13:36.813Z,13.70
2017-10-11T20:16:04.923Z,12.87
2017-10-11T20:18:33.045Z,12.60
2017-10-11T20:21:01.117Z,13.87
2017-10-11T20:23:29.983Z,12.43
2017-10-11T20:25:58.084Z,13.60
2017-10-11T20:28:26.176Z,12.07
2017-10-11T20:30:54.251Z,12.50
2017-10-11T20:33:22.347Z,13.67
2017-10-11T20:35:50.441Z,13.87
2017-10-11T20:38:19.312Z,14.63
2017-10-11T20:40:47.437Z,13.70
2017-10-11T20:45:50.113Z,13.10
2017-10-11T20:48:18.204Z,13.17
2017-10-11T20:50:46.326Z,13.17
2017-10-11T20:53:14.524Z,13.60
2017-10-11T20:55:42.646Z,12.60
2017-10-11T20:58:10.719Z,13.07
2017-10-11T21:00:38.832Z,13.70
2017-10-11T21:03:06.894Z,13.10
2017-10-11T21:05:35.014Z,14.43
2017-10-11T21:08:03.106Z,13.17
2017-10-11T21:10:31.567Z,11.07
2017-10-11T21:13:01.523Z,14.47
2017-10-11T21:15:30.390Z,11.97
2017-10-11T21:17:58.503Z,13.80
2017-10-11T21:20:27.368Z,13.53
2017-10-11T21:22:55.511Z,12.17
2017-10-11T21:25:23.601Z,11.90
2017-10-11T21:27:51.738Z,10.70
2017-10-11T21:30:19.843Z,10.90
2017-10-11T21:32:47.961Z,10.07
2017-10-11T21:35:16.073Z,10.23
2017-10-11T21:37:44.189Z,10.50
2017-10-11T21:40:12.380Z,11.07
2017-10-11T21:42:40.497Z,10.40
2017-10-11T21:45:08.632Z,10.33
2017-10-11T21:47:36.736Z,10.30
2017-10-11T21:50:04.887Z,10.50
2017-10-11T21:52:33.770Z,9.60
2017-10-11T21:55:01.868Z,9.03
2017-10-11T21:57:29.954Z,9.63
2017-10-11T21:59:58.028Z,9.40
2017-10-11T22:02:27.028Z,9.00
2017-10-11T22:04:55.138Z,9.93
2017-10-11T22:07:23.248Z,10.60
2017-10-11T22:09:51.471Z,11.27
2017-10-11T22:12:19.613Z,8.80
2017-10-11T22:14:47.696Z,10.27
2017-10-11T22:17:15.830Z,9.23
2017-10-11T22:19:44.768Z,24.17
2017-10-11T22:22:14.435Z,8.53
2017-10-11T22:24:44.042Z,8.57
2017-10-11T22:27:12.185Z,9.30
2017-10-11T22:29:40.384Z,9.67
2017-10-11T22:32:08.992Z,7.30
2017-10-11T22:34:37.895Z,7.93
2017-10-11T22:37:06.081Z,8.17
2017-10-11T22:39:34.223Z,7.77
2017-10-11T22:42:02.366Z,8.50
2017-10-11T22:44:30.476Z,7.40
2017-10-11T22:46:58.596Z,8.43
2017-10-11T22:49:26.745Z,8.77
2017-10-11T22:51:54.859Z,8.17
2017-10-11T22:54:22.964Z,9.43
2017-10-11T22:56:51.096Z,9.00
2017-10-11T22:59:20.011Z,7.83
2017-10-11T23:01:48.097Z,7.40
2017-10-11T23:04:16.219Z,7.80
2017-10-11T23:06:45.079Z,7.10
2017-10-11T23:09:13.184Z,8.63
2017-10-11T23:11:41.268Z,7.50
2017-10-11T23:14:09.380Z,7.50
2017-10-11T23:16:37.517Z,7.27
2017-10-11T23:19:05.649Z,7.33
2017-10-11T23:21:33.773Z,7.67
2017-10-11T23:24:01.837Z,7.17
2017-10-11T23:26:29.936Z,8.27
2017-10-11T23:28:58.037Z,7.53
2017-10-11T23:31:26.147Z,6.93
2017-10-11T23:33:54.222Z,7.33
2017-10-11T23:36:22.378Z,9.10
2017-10-11T23:38:50.501Z,6.73
2017-10-11T23:41:18.591Z,7.77
2017-10-11T23:43:46.700Z,7.30
2017-10-11T23:46:14.775Z,7.60
2017-10-11T23:48:42.890Z,7.00
2017-10-11T23:51:11.036Z,7.30
2017-10-11T23:53:39.897Z,7.33
2017-10-11T23:56:08.002Z,7.00
2017-10-11T23:58:36.894Z,6.80
